sensor_id;sensor_type;location;lat;lon;timestamp;temperature;humidity
5210;DHT22;2624;48.048;11.706;2022-07-06T00:01:34;19.90;98.40
5210;DHT22;2624;48.048;11.706;2022-07-06T00:06:36;19.70;99.00
5210;DHT22;2624;48.048;11.706;2022-07-06T00:11:39;19.90;98.90
5210;DHT22;2624;48.048;11.706;2022-07-06T00:16:41;19.60;98.70
5210;DHT22;2624;48.048;11.706;2022-07-06T00:21:42;19.80;99.40
5210;DHT22;2624;48.048;11.706;2022-07-06T00:26:46;19.90;99.10
5210;DHT22;2624;48.048;11.706;2022-07-06T00:31:47;19.40;99.60
5210;DHT22;2624;48.048;11.706;2022-07-06T00:36:49;19.40;99.90
5210;DHT22;2624;48.048;11.706;2022-07-06T00:41:52;19.60;99.90
5210;DHT22;2624;48.048;11.706;2022-07-06T00:46:54;19.40;99.90
5210;DHT22;2624;48.048;11.706;2022-07-06T00:51:56;19.40;99.90
5210;DHT22;2624;48.048;11.706;2022-07-06T00:56:59;19.40;99.90
5210;DHT22;2624;48.048;11.706;2022-07-06T01:02:01;19.30;99.90
5210;DHT22;2624;48.048;11.706;2022-07-06T01:07:03;19.10;99.90
5210;DHT22;2624;48.048;11.706;2022-07-06T01:12:07;19.20;99.90
5210;DHT22;2624;48.048;11.706;2022-07-06T01:17:09;19.30;99.90
5210;DHT22;2624;48.048;11.706;2022-07-06T01:22:12;19.30;99.90
5210;DHT22;2624;48.048;11.706;2022-07-06T01:27:14;19.10;99.90
5210;DHT22;2624;48.048;11.706;2022-07-06T01:32:16;19.10;99.90
5210;DHT22;2624;48.048;11.706;2022-07-06T01:37:19;18.90;99.90
5210;DHT22;2624;48.048;11.706;2022-07-06T01:42:21;18.80;99.90
5210;DHT22;2624;48.048;11.706;2022-07-06T01:47:23;18.80;99.90
5210;DHT22;2624;48.048;11.706;2022-07-06T01:52:26;19.00;99.90
5210;DHT22;2624;48.048;11.706;2022-07-06T01:57:28;19.10;99.90
5210;DHT22;2624;48.048;11.706;2022-07-06T02:02:30;19.10;99.90
5210;DHT22;2624;48.048;11.706;2022-07-06T02:07:33;18.90;99.90
5210;DHT22;2624;48.048;11.706;2022-07-06T02:12:35;18.90;99.90
5210;DHT22;2624;48.048;11.706;2022-07-06T02:17:37;18.90;99.90
5210;DHT22;2624;48.048;11.706;2022-07-06T02:22:40;18.70;99.90
5210;DHT22;2624;48.048;11.706;2022-07-06T02:27:42;18.90;99.90
5210;DHT22;2624;48.048;11.706;2022-07-06T02:32:43;18.90;99.90
5210;DHT22;2624;48.048;11.706;2022-07-06T02:37:46;18.80;99.90
5210;DHT22;2624;48.048;11.706;2022-07-06T02:42:48;18.70;99.90
5210;DHT22;2624;48.048;11.706;2022-07-06T02:47:50;18.50;99.90
5210;DHT22;2624;48.048;11.706;2022-07-06T02:52:55;18.60;99.90
5210;DHT22;2624;48.048;11.706;2022-07-06T02:57:56;18.40;99.90
5210;DHT22;2624;48.048;11.706;2022-07-06T03:02:58;18.50;99.90
5210;DHT22;2624;48.048;11.706;2022-07-06T03:08:01;18.40;99.90
5210;DHT22;2624;48.048;11.706;2022-07-06T03:13:03;18.20;99.90
5210;DHT22;2624;48.048;11.706;2022-07-06T03:18:05;18.30;99.90
5210;DHT22;2624;48.048;11.706;2022-07-06T03:23:08;18.50;99.90
5210;DHT22;2624;48.048;11.706;2022-07-06T03:28:10;18.50;99.90
5210;DHT22;2624;48.048;11.706;2022-07-06T03:33:11;18.60;99.90
5210;DHT22;2624;48.048;11.706;2022-07-06T03:38:14;18.50;99.90
5210;DHT22;2624;48.048;11.706;2022-07-06T03:43:16;18.40;99.90
5210;DHT22;2624;48.048;11.706;2022-07-06T03:48:18;18.50;99.90
5210;DHT22;2624;48.048;11.706;2022-07-06T03:53:21;18.50;99.90
5210;DHT22;2624;48.048;11.706;2022-07-06T03:58:23;18.20;99.90
5210;DHT22;2624;48.048;11.706;2022-07-06T04:03:25;17.90;99.90
5210;DHT22;2624;48.048;11.706;2022-07-06T04:08:28;18.10;99.90
5210;DHT22;2624;48.048;11.706;2022-07-06T04:13:29;18.00;99.90
5210;DHT22;2624;48.048;11.706;2022-07-06T04:18:31;18.20;99.90
5210;DHT22;2624;48.048;11.706;2022-07-06T04:23:34;18.10;99.90
5210;DHT22;2624;48.048;11.706;2022-07-06T04:28:36;18.00;99.90
5210;DHT22;2624;48.048;11.706;2022-07-06T04:33:38;17.60;99.90
5210;DHT22;2624;48.048;11.706;2022-07-06T04:38:41;17.50;99.90
5210;DHT22;2624;48.048;11.706;2022-07-06T04:43:43;17.40;99.90
5210;DHT22;2624;48.048;11.706;2022-07-06T04:48:45;17.60;99.90
5210;DHT22;2624;48.048;11.706;2022-07-06T04:53:48;17.90;99.90
5210;DHT22;2624;48.048;11.706;2022-07-06T04:58:50;17.90;99.90
5210;DHT22;2624;48.048;11.706;2022-07-06T05:03:52;17.90;99.90
5210;DHT22;2624;48.048;11.706;2022-07-06T05:08:55;17.60;99.90
5210;DHT22;2624;48.048;11.706;2022-07-06T05:13:59;17.80;99.90
5210;DHT22;2624;48.048;11.706;2022-07-06T05:19:01;17.70;99.90
5210;DHT22;2624;48.048;11.706;2022-07-06T05:24:05;18.00;99.90
5210;DHT22;2624;48.048;11.706;2022-07-06T05:29:07;17.60;99.90
5210;DHT22;2624;48.048;11.706;2022-07-06T05:34:09;17.60;99.90
5210;DHT22;2624;48.048;11.706;2022-07-06T05:39:12;17.70;99.90
5210;DHT22;2624;48.048;11.706;2022-07-06T05:44:14;17.90;99.90
5210;DHT22;2624;48.048;11.706;2022-07-06T05:49:16;18.10;99.90
5210;DHT22;2624;48.048;11.706;2022-07-06T05:54:37;18.00;99.90
5210;DHT22;2624;48.048;11.706;2022-07-06T05:59:38;18.10;99.90
5210;DHT22;2624;48.048;11.706;2022-07-06T06:04:41;18.10;99.90
5210;DHT22;2624;48.048;11.706;2022-07-06T06:09:45;18.20;99.90
5210;DHT22;2624;48.048;11.706;2022-07-06T06:14:47;18.30;99.90
5210;DHT22;2624;48.048;11.706;2022-07-06T06:19:49;18.30;99.90
5210;DHT22;2624;48.048;11.706;2022-07-06T06:24:52;18.30;99.90
5210;DHT22;2624;48.048;11.706;2022-07-06T06:29:54;18.30;99.90
5210;DHT22;2624;48.048;11.706;2022-07-06T06:34:56;18.30;99.90
5210;DHT22;2624;48.048;11.706;2022-07-06T06:39:59;18.30;99.90
5210;DHT22;2624;48.048;11.706;2022-07-06T06:45:00;18.40;99.90
5210;DHT22;2624;48.048;11.706;2022-07-06T06:50:03;18.40;99.90
5210;DHT22;2624;48.048;11.706;2022-07-06T06:55:07;18.50;99.90
5210;DHT22;2624;48.048;11.706;2022-07-06T07:00:10;18.50;99.90
5210;DHT22;2624;48.048;11.706;2022-07-06T07:05:11;18.60;99.90
5210;DHT22;2624;48.048;11.706;2022-07-06T07:10:14;18.60;99.90
5210;DHT22;2624;48.048;11.706;2022-07-06T07:15:16;18.60;99.90
5210;DHT22;2624;48.048;11.706;2022-07-06T07:20:18;18.60;99.90
5210;DHT22;2624;48.048;11.706;2022-07-06T07:25:21;18.70;99.90
5210;DHT22;2624;48.048;11.706;2022-07-06T07:30:23;18.70;99.90
5210;DHT22;2624;48.048;11.706;2022-07-06T07:35:25;18.80;99.90
5210;DHT22;2624;48.048;11.706;2022-07-06T07:40:29;18.80;99.90
5210;DHT22;2624;48.048;11.706;2022-07-06T07:45:30;18.90;99.90
5210;DHT22;2624;48.048;11.706;2022-07-06T07:50:32;18.90;99.90
5210;DHT22;2624;48.048;11.706;2022-07-06T07:55:36;18.90;99.90
5210;DHT22;2624;48.048;11.706;2022-07-06T08:00:38;18.90;99.90
5210;DHT22;2624;48.048;11.706;2022-07-06T08:05:40;19.00;99.90
5210;DHT22;2624;48.048;11.706;2022-07-06T08:10:43;19.00;99.90
5210;DHT22;2624;48.048;11.706;2022-07-06T08:15:45;19.00;99.90
5210;DHT22;2624;48.048;11.706;2022-07-06T08:20:47;19.10;99.90
5210;DHT22;2624;48.048;11.706;2022-07-06T08:25:50;19.20;99.50
5210;DHT22;2624;48.048;11.706;2022-07-06T08:30:52;19.30;99.10
5210;DHT22;2624;48.048;11.706;2022-07-06T08:35:54;19.40;99.00
5210;DHT22;2624;48.048;11.706;2022-07-06T08:40:58;19.70;98.50
5210;DHT22;2624;48.048;11.706;2022-07-06T08:46:01;19.70;98.10
5210;DHT22;2624;48.048;11.706;2022-07-06T08:51:04;20.30;97.10
5210;DHT22;2624;48.048;11.706;2022-07-06T08:56:07;20.00;97.50
5210;DHT22;2624;48.048;11.706;2022-07-06T09:01:10;20.00;97.80
5210;DHT22;2624;48.048;11.706;2022-07-06T09:06:16;20.10;97.40
5210;DHT22;2624;48.048;11.706;2022-07-06T09:11:20;20.00;96.10
5210;DHT22;2624;48.048;11.706;2022-07-06T09:16:26;19.90;96.90
5210;DHT22;2624;48.048;11.706;2022-07-06T09:21:29;19.90;97.30
5210;DHT22;2624;48.048;11.706;2022-07-06T09:26:34;20.00;97.40
5210;DHT22;2624;48.048;11.706;2022-07-06T09:31:36;20.00;97.20
5210;DHT22;2624;48.048;11.706;2022-07-06T09:36:39;20.10;97.00
5210;DHT22;2624;48.048;11.706;2022-07-06T09:41:43;20.30;96.60
5210;DHT22;2624;48.048;11.706;2022-07-06T09:46:46;20.20;96.80
5210;DHT22;2624;48.048;11.706;2022-07-06T09:51:50;20.30;96.70
5210;DHT22;2624;48.048;11.706;2022-07-06T09:56:56;20.60;96.50
5210;DHT22;2624;48.048;11.706;2022-07-06T10:01:59;20.50;96.60
5210;DHT22;2624;48.048;11.706;2022-07-06T10:07:02;20.70;96.50
5210;DHT22;2624;48.048;11.706;2022-07-06T10:12:09;20.80;96.00
5210;DHT22;2624;48.048;11.706;2022-07-06T10:17:14;20.80;96.00
5210;DHT22;2624;48.048;11.706;2022-07-06T10:22:17;21.00;95.40
5210;DHT22;2624;48.048;11.706;2022-07-06T10:27:22;21.10;95.10
5210;DHT22;2624;48.048;11.706;2022-07-06T10:32:25;21.00;95.30
5210;DHT22;2624;48.048;11.706;2022-07-06T10:37:28;21.10;95.60
5210;DHT22;2624;48.048;11.706;2022-07-06T10:42:41;21.20;95.00
5210;DHT22;2624;48.048;11.706;2022-07-06T10:47:43;21.30;94.40
5210;DHT22;2624;48.048;11.706;2022-07-06T10:52:50;21.50;94.60
5210;DHT22;2624;48.048;11.706;2022-07-06T10:57:53;21.30;95.30
5210;DHT22;2624;48.048;11.706;2022-07-06T11:02:55;21.30;95.00
5210;DHT22;2624;48.048;11.706;2022-07-06T11:08:01;21.90;94.10
5210;DHT22;2624;48.048;11.706;2022-07-06T11:13:04;21.60;94.30
5210;DHT22;2624;48.048;11.706;2022-07-06T11:18:10;21.70;94.20
5210;DHT22;2624;48.048;11.706;2022-07-06T11:23:13;21.60;93.30
5210;DHT22;2624;48.048;11.706;2022-07-06T11:28:18;22.00;93.80
5210;DHT22;2624;48.048;11.706;2022-07-06T11:33:28;22.30;92.90
5210;DHT22;2624;48.048;11.706;2022-07-06T11:38:30;22.40;92.90
5210;DHT22;2624;48.048;11.706;2022-07-06T11:43:33;22.50;91.90
5210;DHT22;2624;48.048;11.706;2022-07-06T11:48:35;22.90;90.70
5210;DHT22;2624;48.048;11.706;2022-07-06T11:53:37;22.90;90.40
5210;DHT22;2624;48.048;11.706;2022-07-06T11:58:45;22.80;92.40
5210;DHT22;2624;48.048;11.706;2022-07-06T12:03:48;22.80;92.80
5210;DHT22;2624;48.048;11.706;2022-07-06T12:08:51;22.70;93.10
5210;DHT22;2624;48.048;11.706;2022-07-06T12:13:56;22.80;92.00
5210;DHT22;2624;48.048;11.706;2022-07-06T12:18:59;22.80;92.60
5210;DHT22;2624;48.048;11.706;2022-07-06T12:24:01;23.30;90.90
5210;DHT22;2624;48.048;11.706;2022-07-06T12:29:05;22.90;91.70
5210;DHT22;2624;48.048;11.706;2022-07-06T12:34:14;22.90;92.50
5210;DHT22;2624;48.048;11.706;2022-07-06T12:39:18;23.00;91.90
5210;DHT22;2624;48.048;11.706;2022-07-06T12:44:23;23.00;91.40
5210;DHT22;2624;48.048;11.706;2022-07-06T12:49:26;23.10;92.30
5210;DHT22;2624;48.048;11.706;2022-07-06T12:54:30;23.60;89.60
5210;DHT22;2624;48.048;11.706;2022-07-06T12:59:37;23.90;87.90
5210;DHT22;2624;48.048;11.706;2022-07-06T13:04:39;23.70;89.20
5210;DHT22;2624;48.048;11.706;2022-07-06T13:09:40;23.50;90.20
5210;DHT22;2624;48.048;11.706;2022-07-06T13:14:43;24.10;85.40
5210;DHT22;2624;48.048;11.706;2022-07-06T13:19:45;23.90;89.30
5210;DHT22;2624;48.048;11.706;2022-07-06T13:24:47;23.90;90.80
5210;DHT22;2624;48.048;11.706;2022-07-06T13:29:51;23.70;90.30
5210;DHT22;2624;48.048;11.706;2022-07-06T13:34:52;23.70;90.00
5210;DHT22;2624;48.048;11.706;2022-07-06T13:39:54;23.60;90.60
5210;DHT22;2624;48.048;11.706;2022-07-06T13:44:58;23.80;88.70
5210;DHT22;2624;48.048;11.706;2022-07-06T13:50:00;23.80;90.60
5210;DHT22;2624;48.048;11.706;2022-07-06T13:55:01;24.00;90.60
5210;DHT22;2624;48.048;11.706;2022-07-06T14:00:06;24.30;85.80
5210;DHT22;2624;48.048;11.706;2022-07-06T14:05:08;24.10;90.60
5210;DHT22;2624;48.048;11.706;2022-07-06T14:10:10;24.10;89.00
5210;DHT22;2624;48.048;11.706;2022-07-06T14:15:13;24.00;90.20
5210;DHT22;2624;48.048;11.706;2022-07-06T14:20:16;24.10;90.30
5210;DHT22;2624;48.048;11.706;2022-07-06T14:25:19;24.10;89.50
5210;DHT22;2624;48.048;11.706;2022-07-06T14:30:22;24.10;86.80
5210;DHT22;2624;48.048;11.706;2022-07-06T14:35:24;24.40;82.90
5210;DHT22;2624;48.048;11.706;2022-07-06T14:40:26;24.40;86.00
5210;DHT22;2624;48.048;11.706;2022-07-06T14:45:29;24.30;86.50
5210;DHT22;2624;48.048;11.706;2022-07-06T14:50:31;24.30;89.70
5210;DHT22;2624;48.048;11.706;2022-07-06T14:55:33;24.20;88.20
5210;DHT22;2624;48.048;11.706;2022-07-06T15:00:36;24.00;90.10
5210;DHT22;2624;48.048;11.706;2022-07-06T15:05:38;24.20;87.70
5210;DHT22;2624;48.048;11.706;2022-07-06T15:10:40;24.40;82.60
5210;DHT22;2624;48.048;11.706;2022-07-06T15:15:43;24.30;87.80
5210;DHT22;2624;48.048;11.706;2022-07-06T15:20:45;24.20;86.70
5210;DHT22;2624;48.048;11.706;2022-07-06T15:25:47;24.10;89.20
5210;DHT22;2624;48.048;11.706;2022-07-06T15:30:51;24.20;87.60
5210;DHT22;2624;48.048;11.706;2022-07-06T15:35:53;24.30;87.40
5210;DHT22;2624;48.048;11.706;2022-07-06T15:40:54;24.00;87.70
5210;DHT22;2624;48.048;11.706;2022-07-06T15:46:02;24.00;88.80
5210;DHT22;2624;48.048;11.706;2022-07-06T15:51:04;24.00;87.60
5210;DHT22;2624;48.048;11.706;2022-07-06T15:56:06;24.10;88.40
5210;DHT22;2624;48.048;11.706;2022-07-06T16:01:10;24.10;88.50
5210;DHT22;2624;48.048;11.706;2022-07-06T16:06:11;24.10;82.90
5210;DHT22;2624;48.048;11.706;2022-07-06T16:11:15;24.00;87.70
5210;DHT22;2624;48.048;11.706;2022-07-06T16:16:18;24.00;85.50
5210;DHT22;2624;48.048;11.706;2022-07-06T16:21:20;24.10;84.90
5210;DHT22;2624;48.048;11.706;2022-07-06T16:26:22;24.00;87.90
5210;DHT22;2624;48.048;11.706;2022-07-06T16:31:25;23.90;87.40
5210;DHT22;2624;48.048;11.706;2022-07-06T16:36:27;24.00;88.40
5210;DHT22;2624;48.048;11.706;2022-07-06T16:41:29;23.90;88.10
5210;DHT22;2624;48.048;11.706;2022-07-06T16:46:32;24.00;86.10
5210;DHT22;2624;48.048;11.706;2022-07-06T16:51:34;23.90;87.10
5210;DHT22;2624;48.048;11.706;2022-07-06T16:56:36;23.90;87.80
5210;DHT22;2624;48.048;11.706;2022-07-06T17:01:40;23.90;87.70
5210;DHT22;2624;48.048;11.706;2022-07-06T17:06:41;23.90;88.30
5210;DHT22;2624;48.048;11.706;2022-07-06T17:11:43;23.80;88.60
5210;DHT22;2624;48.048;11.706;2022-07-06T17:16:47;23.80;88.40
5210;DHT22;2624;48.048;11.706;2022-07-06T17:21:48;23.80;88.40
5210;DHT22;2624;48.048;11.706;2022-07-06T17:26:50;23.70;88.10
5210;DHT22;2624;48.048;11.706;2022-07-06T17:31:54;23.60;87.50
5210;DHT22;2624;48.048;11.706;2022-07-06T17:36:56;23.50;87.20
5210;DHT22;2624;48.048;11.706;2022-07-06T17:41:58;23.60;87.40
5210;DHT22;2624;48.048;11.706;2022-07-06T17:47:02;23.60;87.30
5210;DHT22;2624;48.048;11.706;2022-07-06T17:52:04;23.50;85.10
5210;DHT22;2624;48.048;11.706;2022-07-06T17:57:12;23.50;86.80
5210;DHT22;2624;48.048;11.706;2022-07-06T18:02:16;23.40;87.10
5210;DHT22;2624;48.048;11.706;2022-07-06T18:07:17;23.40;86.90
5210;DHT22;2624;48.048;11.706;2022-07-06T18:12:19;23.40;87.00
5210;DHT22;2624;48.048;11.706;2022-07-06T18:17:22;23.40;86.80
5210;DHT22;2624;48.048;11.706;2022-07-06T18:22:24;23.30;86.80
5210;DHT22;2624;48.048;11.706;2022-07-06T18:27:26;23.30;86.70
5210;DHT22;2624;48.048;11.706;2022-07-06T18:32:29;23.30;87.00
5210;DHT22;2624;48.048;11.706;2022-07-06T18:37:31;23.30;86.50
5210;DHT22;2624;48.048;11.706;2022-07-06T18:42:33;23.20;86.50
5210;DHT22;2624;48.048;11.706;2022-07-06T18:47:36;23.20;86.50
5210;DHT22;2624;48.048;11.706;2022-07-06T18:52:38;23.10;86.40
5210;DHT22;2624;48.048;11.706;2022-07-06T18:57:39;23.10;86.80
5210;DHT22;2624;48.048;11.706;2022-07-06T19:02:43;23.10;87.00
5210;DHT22;2624;48.048;11.706;2022-07-06T19:07:44;23.00;86.20
5210;DHT22;2624;48.048;11.706;2022-07-06T19:12:46;23.00;87.30
5210;DHT22;2624;48.048;11.706;2022-07-06T19:17:49;22.70;89.20
5210;DHT22;2624;48.048;11.706;2022-07-06T19:22:53;22.80;88.80
5210;DHT22;2624;48.048;11.706;2022-07-06T19:27:54;22.80;88.60
5210;DHT22;2624;48.048;11.706;2022-07-06T19:32:58;22.80;88.50
5210;DHT22;2624;48.048;11.706;2022-07-06T19:38:00;22.80;88.60
5210;DHT22;2624;48.048;11.706;2022-07-06T19:43:02;22.70;88.50
5210;DHT22;2624;48.048;11.706;2022-07-06T19:48:06;22.60;88.70
5210;DHT22;2624;48.048;11.706;2022-07-06T19:53:09;22.60;88.80
5210;DHT22;2624;48.048;11.706;2022-07-06T19:58:11;22.50;88.50
5210;DHT22;2624;48.048;11.706;2022-07-06T20:03:14;22.50;88.20
5210;DHT22;2624;48.048;11.706;2022-07-06T20:08:16;22.40;88.30
5210;DHT22;2624;48.048;11.706;2022-07-06T20:13:18;22.30;88.20
5210;DHT22;2624;48.048;11.706;2022-07-06T20:18:21;22.30;87.90
5210;DHT22;2624;48.048;11.706;2022-07-06T20:23:23;22.30;86.90
5210;DHT22;2624;48.048;11.706;2022-07-06T20:28:25;22.30;87.70
5210;DHT22;2624;48.048;11.706;2022-07-06T20:33:29;22.10;86.50
5210;DHT22;2624;48.048;11.706;2022-07-06T20:38:31;22.10;87.80
5210;DHT22;2624;48.048;11.706;2022-07-06T20:43:33;22.10;87.80
5210;DHT22;2624;48.048;11.706;2022-07-06T20:48:36;22.10;87.90
5210;DHT22;2624;48.048;11.706;2022-07-06T20:53:38;22.00;88.00
5210;DHT22;2624;48.048;11.706;2022-07-06T20:58:40;22.00;88.00
5210;DHT22;2624;48.048;11.706;2022-07-06T21:03:43;22.00;88.20
5210;DHT22;2624;48.048;11.706;2022-07-06T21:08:44;21.90;88.40
5210;DHT22;2624;48.048;11.706;2022-07-06T21:13:47;21.90;88.50
5210;DHT22;2624;48.048;11.706;2022-07-06T21:18:50;21.90;88.80
5210;DHT22;2624;48.048;11.706;2022-07-06T21:23:52;21.90;88.90
5210;DHT22;2624;48.048;11.706;2022-07-06T21:28:53;21.80;89.00
5210;DHT22;2624;48.048;11.706;2022-07-06T21:33:57;21.80;89.40
5210;DHT22;2624;48.048;11.706;2022-07-06T21:38:59;21.70;89.40
5210;DHT22;2624;48.048;11.706;2022-07-06T21:44:00;21.60;89.90
5210;DHT22;2624;48.048;11.706;2022-07-06T21:49:04;21.50;90.10
5210;DHT22;2624;48.048;11.706;2022-07-06T21:54:05;21.50;89.30
5210;DHT22;2624;48.048;11.706;2022-07-06T21:59:07;21.50;89.20
5210;DHT22;2624;48.048;11.706;2022-07-06T22:04:10;21.50;89.20
5210;DHT22;2624;48.048;11.706;2022-07-06T22:09:12;21.40;87.60
5210;DHT22;2624;48.048;11.706;2022-07-06T22:14:14;21.40;88.90
5210;DHT22;2624;48.048;11.706;2022-07-06T22:19:18;21.30;88.20
5210;DHT22;2624;48.048;11.706;2022-07-06T22:24:20;21.30;88.20
5210;DHT22;2624;48.048;11.706;2022-07-06T22:29:22;21.30;87.80
5210;DHT22;2624;48.048;11.706;2022-07-06T22:34:25;21.20;87.50
5210;DHT22;2624;48.048;11.706;2022-07-06T22:39:27;21.20;86.10
5210;DHT22;2624;48.048;11.706;2022-07-06T22:44:28;21.20;83.50
5210;DHT22;2624;48.048;11.706;2022-07-06T22:49:32;21.10;85.50
5210;DHT22;2624;48.048;11.706;2022-07-06T22:54:33;21.00;85.60
5210;DHT22;2624;48.048;11.706;2022-07-06T22:59:35;20.90;83.20
5210;DHT22;2624;48.048;11.706;2022-07-06T23:04:38;20.80;85.60
5210;DHT22;2624;48.048;11.706;2022-07-06T23:09:40;20.90;84.20
5210;DHT22;2624;48.048;11.706;2022-07-06T23:14:42;20.50;82.40
5210;DHT22;2624;48.048;11.706;2022-07-06T23:19:45;20.40;83.20
5210;DHT22;2624;48.048;11.706;2022-07-06T23:24:46;20.10;84.40
5210;DHT22;2624;48.048;11.706;2022-07-06T23:29:48;20.10;87.60
5210;DHT22;2624;48.048;11.706;2022-07-06T23:34:51;20.00;89.70
5210;DHT22;2624;48.048;11.706;2022-07-06T23:39:54;20.10;90.20
5210;DHT22;2624;48.048;11.706;2022-07-06T23:44:56;20.10;90.20
5210;DHT22;2624;48.048;11.706;2022-07-06T23:49:59;20.00;90.40
5210;DHT22;2624;48.048;11.706;2022-07-06T23:55:01;19.80;90.40
